sensor_id;sensor_type;location;lat;lon;timestamp;pressure;altitude;pressure_sealevel;temperature;humidity
75788;BME280;64406;50.024;14.492;2023-07-13T00:01:47;97642.78;;;20.86;65.63
75788;BME280;64406;50.024;14.492;2023-07-13T00:04:22;97641.19;;;20.85;66.18
75788;BME280;64406;50.024;14.492;2023-07-13T00:06:48;97641.66;;;20.87;65.99
75788;BME280;64406;50.024;14.492;2023-07-13T00:09:16;97641.47;;;20.99;66.42
75788;BME280;64406;50.024;14.492;2023-07-13T00:11:44;97641.94;;;21.01;66.53
75788;BME280;64406;50.024;14.492;2023-07-13T00:14:11;97650.66;;;21.07;66.48
75788;BME280;64406;50.024;14.492;2023-07-13T00:16:39;97645.31;;;21.14;66.49
75788;BME280;64406;50.024;14.492;2023-07-13T00:19:06;97650.06;;;21.17;66.39
75788;BME280;64406;50.024;14.492;2023-07-13T00:21:32;97649.81;;;21.26;66.53
75788;BME280;64406;50.024;14.492;2023-07-13T00:23:57;97643.22;;;21.27;66.24
75788;BME280;64406;50.024;14.492;2023-07-13T00:26:23;97640.91;;;21.29;66.44
75788;BME280;64406;50.024;14.492;2023-07-13T00:28:49;97640.13;;;21.28;66.46
75788;BME280;64406;50.024;14.492;2023-07-13T00:31:15;97633.50;;;21.29;66.78
75788;BME280;64406;50.024;14.492;2023-07-13T00:33:41;97633.50;;;21.29;66.89
75788;BME280;64406;50.024;14.492;2023-07-13T00:36:08;97629.16;;;21.28;67.20
75788;BME280;64406;50.024;14.492;2023-07-13T00:38:34;97624.03;;;21.27;67.38
75788;BME280;64406;50.024;14.492;2023-07-13T00:41:00;97618.22;;;21.28;67.29
75788;BME280;64406;50.024;14.492;2023-07-13T00:43:27;97614.19;;;21.26;67.39
75788;BME280;64406;50.024;14.492;2023-07-13T00:48:21;97603.44;;;21.13;67.96
75788;BME280;64406;50.024;14.492;2023-07-13T00:50:53;97607.63;;;21.07;68.40
75788;BME280;64406;50.024;14.492;2023-07-13T00:53:21;97603.31;;;21.06;68.50
75788;BME280;64406;50.024;14.492;2023-07-13T00:55:49;97596.16;;;21.02;68.81
75788;BME280;64406;50.024;14.492;2023-07-13T00:58:15;97608.34;;;21.04;68.74
75788;BME280;64406;50.024;14.492;2023-07-13T01:00:41;97609.13;;;21.05;68.90
75788;BME280;64406;50.024;14.492;2023-07-13T01:03:07;97614.31;;;21.10;68.76
75788;BME280;64406;50.024;14.492;2023-07-13T01:05:35;97614.69;;;21.08;68.85
75788;BME280;64406;50.024;14.492;2023-07-13T01:08:02;97606.59;;;21.15;68.92
75788;BME280;64406;50.024;14.492;2023-07-13T01:10:29;97611.34;;;21.18;68.88
75788;BME280;64406;50.024;14.492;2023-07-13T01:13:08;97602.16;;;21.07;69.27
75788;BME280;64406;50.024;14.492;2023-07-13T01:15:38;97601.00;;;21.08;69.19
75788;BME280;64406;50.024;14.492;2023-07-13T01:18:07;97594.28;;;21.06;69.79
75788;BME280;64406;50.024;14.492;2023-07-13T01:20:33;97593.97;;;21.11;69.53
75788;BME280;64406;50.024;14.492;2023-07-13T01:23:09;97580.44;;;20.99;70.20
75788;BME280;64406;50.024;14.492;2023-07-13T01:25:36;97588.00;;;21.05;69.83
75788;BME280;64406;50.024;14.492;2023-07-13T01:28:07;97582.97;;;21.07;69.93
75788;BME280;64406;50.024;14.492;2023-07-13T01:30:36;97586.00;;;21.02;70.26
75788;BME280;64406;50.024;14.492;2023-07-13T01:33:03;97585.25;;;21.05;70.12
75788;BME280;64406;50.024;14.492;2023-07-13T01:35:29;97582.84;;;21.00;70.29
75788;BME280;64406;50.024;14.492;2023-07-13T01:37:55;97585.22;;;21.02;70.12
75788;BME280;64406;50.024;14.492;2023-07-13T01:40:22;97579.75;;;21.02;70.20
75788;BME280;64406;50.024;14.492;2023-07-13T01:42:48;97585.91;;;20.99;70.43
75788;BME280;64406;50.024;14.492;2023-07-13T01:45:14;97586.00;;;21.02;70.22
75788;BME280;64406;50.024;14.492;2023-07-13T01:47:39;97578.81;;;20.94;70.47
75788;BME280;64406;50.024;14.492;2023-07-13T01:50:05;97583.00;;;20.88;70.93
75788;BME280;64406;50.024;14.492;2023-07-13T01:52:31;97582.50;;;20.82;71.00
75788;BME280;64406;50.024;14.492;2023-07-13T01:54:57;97590.63;;;20.79;71.18
75788;BME280;64406;50.024;14.492;2023-07-13T01:57:22;97584.31;;;20.75;71.32
75788;BME280;64406;50.024;14.492;2023-07-13T01:59:48;97584.72;;;20.77;70.98
75788;BME280;64406;50.024;14.492;2023-07-13T02:02:13;97592.56;;;20.78;71.01
75788;BME280;64406;50.024;14.492;2023-07-13T02:04:40;97581.63;;;20.78;70.63
75788;BME280;64406;50.024;14.492;2023-07-13T02:07:05;97582.41;;;20.79;70.53
75788;BME280;64406;50.024;14.492;2023-07-13T02:09:31;97573.00;;;20.76;70.65
75788;BME280;64406;50.024;14.492;2023-07-13T02:11:56;97581.84;;;20.70;70.75
75788;BME280;64406;50.024;14.492;2023-07-13T02:14:22;97594.16;;;20.79;70.31
75788;BME280;64406;50.024;14.492;2023-07-13T02:16:48;97588.69;;;20.79;70.13
75788;BME280;64406;50.024;14.492;2023-07-13T02:19:14;97587.03;;;20.75;70.13
75788;BME280;64406;50.024;14.492;2023-07-13T02:21:40;97591.22;;;20.69;69.95
75788;BME280;64406;50.024;14.492;2023-07-13T02:24:06;97595.13;;;20.68;70.18
75788;BME280;64406;50.024;14.492;2023-07-13T02:26:32;97597.47;;;20.69;69.88
75788;BME280;64406;50.024;14.492;2023-07-13T02:28:57;97593.16;;;20.68;69.87
75788;BME280;64406;50.024;14.492;2023-07-13T02:31:23;97602.72;;;20.78;69.50
75788;BME280;64406;50.024;14.492;2023-07-13T02:33:48;97598.34;;;20.73;70.00
75788;BME280;64406;50.024;14.492;2023-07-13T02:36:14;97599.56;;;20.76;69.98
75788;BME280;64406;50.024;14.492;2023-07-13T02:38:42;97609.72;;;20.75;69.56
75788;BME280;64406;50.024;14.492;2023-07-13T02:41:08;97617.22;;;20.78;69.50
75788;BME280;64406;50.024;14.492;2023-07-13T02:43:35;97612.38;;;20.72;69.34
75788;BME280;64406;50.024;14.492;2023-07-13T02:46:01;97617.34;;;20.66;69.92
75788;BME280;64406;50.024;14.492;2023-07-13T02:48:36;97613.41;;;20.63;70.10
75788;BME280;64406;50.024;14.492;2023-07-13T02:51:02;97610.28;;;20.65;69.78
75788;BME280;64406;50.024;14.492;2023-07-13T02:53:28;97620.41;;;20.61;70.24
75788;BME280;64406;50.024;14.492;2023-07-13T02:55:54;97615.19;;;20.56;70.45
75788;BME280;64406;50.024;14.492;2023-07-13T02:58:19;97619.38;;;20.50;70.60
75788;BME280;64406;50.024;14.492;2023-07-13T03:00:47;97619.19;;;20.43;70.88
75788;BME280;64406;50.024;14.492;2023-07-13T03:03:14;97625.72;;;20.38;71.33
75788;BME280;64406;50.024;14.492;2023-07-13T03:05:40;97622.94;;;20.34;71.29
75788;BME280;64406;50.024;14.492;2023-07-13T03:08:08;97633.72;;;20.27;71.70
75788;BME280;64406;50.024;14.492;2023-07-13T03:10:34;97624.09;;;20.18;72.01
75788;BME280;64406;50.024;14.492;2023-07-13T03:12:59;97632.66;;;20.16;72.40
75788;BME280;64406;50.024;14.492;2023-07-13T03:15:25;97628.97;;;20.08;72.59
75788;BME280;64406;50.024;14.492;2023-07-13T03:17:51;97635.94;;;20.06;72.92
75788;BME280;64406;50.024;14.492;2023-07-13T03:20:16;97648.56;;;20.10;72.47
75788;BME280;64406;50.024;14.492;2023-07-13T03:22:42;97656.22;;;20.05;72.98
75788;BME280;64406;50.024;14.492;2023-07-13T03:25:08;97647.97;;;20.01;73.19
75788;BME280;64406;50.024;14.492;2023-07-13T03:27:33;97644.34;;;19.97;73.34
75788;BME280;64406;50.024;14.492;2023-07-13T03:29:59;97656.84;;;19.98;73.33
75788;BME280;64406;50.024;14.492;2023-07-13T03:32:25;97668.84;;;20.09;72.88
75788;BME280;64406;50.024;14.492;2023-07-13T03:34:50;97667.69;;;20.10;72.97
75788;BME280;64406;50.024;14.492;2023-07-13T03:37:16;97666.19;;;20.13;72.79
75788;BME280;64406;50.024;14.492;2023-07-13T03:39:41;97664.69;;;20.16;73.11
75788;BME280;64406;50.024;14.492;2023-07-13T03:42:07;97677.66;;;20.19;72.93
75788;BME280;64406;50.024;14.492;2023-07-13T03:44:33;97682.41;;;20.22;73.13
75788;BME280;64406;50.024;14.492;2023-07-13T03:46:58;97684.28;;;20.18;73.41
75788;BME280;64406;50.024;14.492;2023-07-13T03:49:24;97686.13;;;20.14;73.56
75788;BME280;64406;50.024;14.492;2023-07-13T03:51:50;97693.09;;;20.11;72.97
75788;BME280;64406;50.024;14.492;2023-07-13T03:54:15;97688.97;;;20.01;73.23
75788;BME280;64406;50.024;14.492;2023-07-13T03:56:41;97696.38;;;20.01;72.65
75788;BME280;64406;50.024;14.492;2023-07-13T03:59:06;97715.84;;;19.99;63.80
75788;BME280;64406;50.024;14.492;2023-07-13T04:01:33;97714.53;;;19.93;63.11
75788;BME280;64406;50.024;14.492;2023-07-13T04:03:59;97711.97;;;19.85;62.42
75788;BME280;64406;50.024;14.492;2023-07-13T04:06:29;97710.81;;;19.86;61.50
75788;BME280;64406;50.024;14.492;2023-07-13T04:08:57;97714.28;;;19.82;61.51
75788;BME280;64406;50.024;14.492;2023-07-13T04:11:25;97721.31;;;19.83;60.94
75788;BME280;64406;50.024;14.492;2023-07-13T04:13:52;97717.63;;;19.76;60.74
75788;BME280;64406;50.024;14.492;2023-07-13T04:16:18;97719.63;;;19.79;61.16
75788;BME280;64406;50.024;14.492;2023-07-13T04:18:46;97732.06;;;19.76;61.19
75788;BME280;64406;50.024;14.492;2023-07-13T04:21:12;97733.28;;;19.63;60.50
75788;BME280;64406;50.024;14.492;2023-07-13T04:23:38;97746.00;;;19.71;59.91
75788;BME280;64406;50.024;14.492;2023-07-13T04:26:04;97735.31;;;19.66;59.95
75788;BME280;64406;50.024;14.492;2023-07-13T04:28:30;97741.25;;;19.68;60.00
75788;BME280;64406;50.024;14.492;2023-07-13T04:30:56;97727.84;;;19.51;60.26
75788;BME280;64406;50.024;14.492;2023-07-13T04:33:22;97735.16;;;19.47;60.61
75788;BME280;64406;50.024;14.492;2023-07-13T04:35:49;97737.44;;;19.45;60.84
75788;BME280;64406;50.024;14.492;2023-07-13T04:38:24;97723.69;;;19.41;61.22
75788;BME280;64406;50.024;14.492;2023-07-13T04:40:51;97719.31;;;19.24;60.85
75788;BME280;64406;50.024;14.492;2023-07-13T04:43:17;97716.47;;;19.21;61.11
75788;BME280;64406;50.024;14.492;2023-07-13T04:45:43;97732.19;;;19.24;61.01
75788;BME280;64406;50.024;14.492;2023-07-13T04:48:08;97733.34;;;19.23;61.36
75788;BME280;64406;50.024;14.492;2023-07-13T04:50:37;97730.69;;;19.26;61.49
75788;BME280;64406;50.024;14.492;2023-07-13T04:53:03;97733.63;;;19.34;60.95
75788;BME280;64406;50.024;14.492;2023-07-13T04:55:30;97744.28;;;19.39;60.00
75788;BME280;64406;50.024;14.492;2023-07-13T04:57:56;97736.09;;;19.39;59.78
75788;BME280;64406;50.024;14.492;2023-07-13T05:00:25;97744.75;;;19.41;59.76
75788;BME280;64406;50.024;14.492;2023-07-13T05:02:50;97739.81;;;19.46;59.51
75788;BME280;64406;50.024;14.492;2023-07-13T05:05:17;97738.59;;;19.44;60.10
75788;BME280;64406;50.024;14.492;2023-07-13T05:07:42;97745.34;;;19.34;59.59
75788;BME280;64406;50.024;14.492;2023-07-13T05:10:09;97740.19;;;19.17;60.43
75788;BME280;64406;50.024;14.492;2023-07-13T05:12:35;97749.16;;;19.17;60.66
75788;BME280;64406;50.024;14.492;2023-07-13T05:15:01;97734.19;;;18.99;60.36
75788;BME280;64406;50.024;14.492;2023-07-13T05:17:27;97731.06;;;18.85;60.89
75788;BME280;64406;50.024;14.492;2023-07-13T05:19:53;97740.84;;;18.73;61.53
75788;BME280;64406;50.024;14.492;2023-07-13T05:22:18;97749.94;;;18.65;61.62
75788;BME280;64406;50.024;14.492;2023-07-13T05:24:44;97742.44;;;18.74;61.22
75788;BME280;64406;50.024;14.492;2023-07-13T05:27:09;97744.06;;;18.76;61.28
75788;BME280;64406;50.024;14.492;2023-07-13T05:29:35;97743.22;;;18.75;61.44
75788;BME280;64406;50.024;14.492;2023-07-13T05:32:01;97743.25;;;18.63;61.95
75788;BME280;64406;50.024;14.492;2023-07-13T05:34:26;97751.78;;;18.49;62.35
75788;BME280;64406;50.024;14.492;2023-07-13T05:36:52;97759.84;;;18.58;62.60
75788;BME280;64406;50.024;14.492;2023-07-13T05:39:18;97762.34;;;18.63;62.72
75788;BME280;64406;50.024;14.492;2023-07-13T05:41:44;97773.13;;;18.59;62.85
75788;BME280;64406;50.024;14.492;2023-07-13T05:44:10;97775.06;;;18.59;63.23
75788;BME280;64406;50.024;14.492;2023-07-13T05:46:35;97779.72;;;18.58;63.68
75788;BME280;64406;50.024;14.492;2023-07-13T05:49:01;97777.34;;;18.81;62.85
75788;BME280;64406;50.024;14.492;2023-07-13T05:51:29;97784.50;;;18.86;62.42
75788;BME280;64406;50.024;14.492;2023-07-13T05:53:54;97787.22;;;18.98;62.11
75788;BME280;64406;50.024;14.492;2023-07-13T05:56:20;97793.13;;;19.00;61.79
75788;BME280;64406;50.024;14.492;2023-07-13T05:58:47;97791.53;;;18.99;62.28
75788;BME280;64406;50.024;14.492;2023-07-13T06:01:14;97797.75;;;19.12;61.82
75788;BME280;64406;50.024;14.492;2023-07-13T06:03:40;97792.53;;;18.94;62.62
75788;BME280;64406;50.024;14.492;2023-07-13T06:06:07;97790.63;;;18.95;62.60
75788;BME280;64406;50.024;14.492;2023-07-13T06:08:34;97798.88;;;19.23;61.76
75788;BME280;64406;50.024;14.492;2023-07-13T06:11:20;97801.25;;;19.24;61.91
75788;BME280;64406;50.024;14.492;2023-07-13T06:13:46;97799.91;;;19.18;61.95
75788;BME280;64406;50.024;14.492;2023-07-13T06:16:13;97810.97;;;19.10;62.37
75788;BME280;64406;50.024;14.492;2023-07-13T06:18:40;97819.56;;;19.24;62.36
75788;BME280;64406;50.024;14.492;2023-07-13T06:21:07;97818.78;;;19.23;61.92
75788;BME280;64406;50.024;14.492;2023-07-13T06:23:33;97827.56;;;19.17;62.50
75788;BME280;64406;50.024;14.492;2023-07-13T06:25:59;97825.91;;;19.40;61.70
75788;BME280;64406;50.024;14.492;2023-07-13T06:28:25;97824.16;;;19.60;61.27
75788;BME280;64406;50.024;14.492;2023-07-13T06:30:50;97824.91;;;19.20;62.26
75788;BME280;64406;50.024;14.492;2023-07-13T06:33:16;97819.47;;;19.20;62.52
75788;BME280;64406;50.024;14.492;2023-07-13T06:35:42;97812.44;;;19.07;62.92
75788;BME280;64406;50.024;14.492;2023-07-13T06:38:08;97809.91;;;19.14;63.40
75788;BME280;64406;50.024;14.492;2023-07-13T06:40:33;97817.53;;;19.21;61.86
75788;BME280;64406;50.024;14.492;2023-07-13T06:42:59;97815.13;;;19.32;62.37
75788;BME280;64406;50.024;14.492;2023-07-13T06:45:24;97825.03;;;19.24;62.07
75788;BME280;64406;50.024;14.492;2023-07-13T06:47:50;97823.22;;;19.28;61.59
75788;BME280;64406;50.024;14.492;2023-07-13T06:50:16;97822.44;;;19.15;62.07
75788;BME280;64406;50.024;14.492;2023-07-13T06:52:42;97827.78;;;19.24;61.63
75788;BME280;64406;50.024;14.492;2023-07-13T06:55:07;97831.25;;;19.37;62.10
75788;BME280;64406;50.024;14.492;2023-07-13T06:57:33;97841.97;;;19.42;61.71
75788;BME280;64406;50.024;14.492;2023-07-13T06:59:59;97838.66;;;19.36;61.79
75788;BME280;64406;50.024;14.492;2023-07-13T07:02:25;97841.69;;;19.47;61.31
75788;BME280;64406;50.024;14.492;2023-07-13T07:04:50;97847.16;;;19.59;60.64
75788;BME280;64406;50.024;14.492;2023-07-13T07:07:16;97838.13;;;19.71;60.42
75788;BME280;64406;50.024;14.492;2023-07-13T07:09:42;97836.69;;;19.89;59.91
75788;BME280;64406;50.024;14.492;2023-07-13T07:12:08;97834.22;;;20.00;59.48
75788;BME280;64406;50.024;14.492;2023-07-13T07:14:33;97835.06;;;20.16;59.05
75788;BME280;64406;50.024;14.492;2023-07-13T07:17:00;97842.16;;;20.49;58.05
75788;BME280;64406;50.024;14.492;2023-07-13T07:19:27;97846.53;;;20.85;57.31
75788;BME280;64406;50.024;14.492;2023-07-13T07:21:53;97847.91;;;20.75;57.59
75788;BME280;64406;50.024;14.492;2023-07-13T07:24:18;97855.38;;;20.78;56.74
75788;BME280;64406;50.024;14.492;2023-07-13T07:26:44;97853.66;;;20.54;57.41
75788;BME280;64406;50.024;14.492;2023-07-13T07:29:10;97854.97;;;20.60;57.31
75788;BME280;64406;50.024;14.492;2023-07-13T07:31:35;97855.66;;;20.57;57.23
75788;BME280;64406;50.024;14.492;2023-07-13T07:34:02;97864.47;;;20.67;57.25
75788;BME280;64406;50.024;14.492;2023-07-13T07:36:28;97867.94;;;20.48;57.96
75788;BME280;64406;50.024;14.492;2023-07-13T07:38:53;97869.53;;;20.64;57.98
75788;BME280;64406;50.024;14.492;2023-07-13T07:41:19;97866.13;;;21.03;56.72
75788;BME280;64406;50.024;14.492;2023-07-13T07:43:46;97858.69;;;21.54;55.07
75788;BME280;64406;50.024;14.492;2023-07-13T07:46:12;97870.47;;;21.39;54.60
75788;BME280;64406;50.024;14.492;2023-07-13T07:48:37;97868.56;;;21.97;54.00
75788;BME280;64406;50.024;14.492;2023-07-13T07:51:03;97868.78;;;22.50;52.48
75788;BME280;64406;50.024;14.492;2023-07-13T07:53:28;97870.59;;;22.01;53.11
75788;BME280;64406;50.024;14.492;2023-07-13T07:55:54;97869.53;;;22.47;52.70
75788;BME280;64406;50.024;14.492;2023-07-13T07:58:19;97874.75;;;21.36;54.27
75788;BME280;64406;50.024;14.492;2023-07-13T08:00:45;97875.50;;;21.53;54.46
75788;BME280;64406;50.024;14.492;2023-07-13T08:03:11;97885.75;;;21.56;54.45
75788;BME280;64406;50.024;14.492;2023-07-13T08:05:37;97884.31;;;21.62;55.66
75788;BME280;64406;50.024;14.492;2023-07-13T08:08:03;97875.41;;;21.49;55.14
75788;BME280;64406;50.024;14.492;2023-07-13T08:10:28;97886.91;;;21.55;54.43
75788;BME280;64406;50.024;14.492;2023-07-13T08:12:54;97884.09;;;21.70;52.96
75788;BME280;64406;50.024;14.492;2023-07-13T08:15:20;97886.63;;;21.79;50.59
75788;BME280;64406;50.024;14.492;2023-07-13T08:17:47;97892.66;;;21.50;52.13
75788;BME280;64406;50.024;14.492;2023-07-13T08:20:14;97894.31;;;21.54;52.54
75788;BME280;64406;50.024;14.492;2023-07-13T08:22:40;97892.63;;;21.30;53.02
75788;BME280;64406;50.024;14.492;2023-07-13T08:25:06;97891.91;;;21.33;53.30
75788;BME280;64406;50.024;14.492;2023-07-13T08:27:32;97895.09;;;21.35;53.76
75788;BME280;64406;50.024;14.492;2023-07-13T08:29:58;97885.50;;;21.45;52.52
75788;BME280;64406;50.024;14.492;2023-07-13T08:32:23;97895.97;;;21.39;51.75
75788;BME280;64406;50.024;14.492;2023-07-13T08:34:50;97887.59;;;21.52;51.59
75788;BME280;64406;50.024;14.492;2023-07-13T08:37:16;97881.06;;;21.76;51.11
75788;BME280;64406;50.024;14.492;2023-07-13T08:39:42;97885.41;;;22.15;49.22
75788;BME280;64406;50.024;14.492;2023-07-13T08:42:21;97872.31;;;22.51;48.07
75788;BME280;64406;50.024;14.492;2023-07-13T08:47:39;97891.81;;;23.41;45.53
75788;BME280;64406;50.024;14.492;2023-07-13T08:50:11;97879.88;;;23.30;45.88
75788;BME280;64406;50.024;14.492;2023-07-13T08:52:39;97891.91;;;23.48;45.51
75788;BME280;64406;50.024;14.492;2023-07-13T08:55:16;97887.78;;;23.35;45.77
75788;BME280;64406;50.024;14.492;2023-07-13T08:57:47;97890.41;;;23.24;45.12
75788;BME280;64406;50.024;14.492;2023-07-13T09:00:14;97885.22;;;22.93;44.64
75788;BME280;64406;50.024;14.492;2023-07-13T09:02:45;97893.56;;;23.26;42.97
75788;BME280;64406;50.024;14.492;2023-07-13T09:05:18;97894.28;;;23.50;40.94
75788;BME280;64406;50.024;14.492;2023-07-13T09:10:28;97904.22;;;23.58;40.32
75788;BME280;64406;50.024;14.492;2023-07-13T09:13:16;97901.63;;;23.69;40.11
75788;BME280;64406;50.024;14.492;2023-07-13T09:15:46;97905.25;;;23.20;43.44
75788;BME280;64406;50.024;14.492;2023-07-13T09:18:23;97911.13;;;22.72;44.73
75788;BME280;64406;50.024;14.492;2023-07-13T09:20:55;97909.91;;;22.70;45.19
75788;BME280;64406;50.024;14.492;2023-07-13T09:23:24;97912.16;;;22.64;45.12
75788;BME280;64406;50.024;14.492;2023-07-13T09:26:00;97922.63;;;22.36;45.61
75788;BME280;64406;50.024;14.492;2023-07-13T09:28:29;97925.03;;;22.18;46.80
75788;BME280;64406;50.024;14.492;2023-07-13T09:31:07;97927.66;;;22.53;46.48
75788;BME280;64406;50.024;14.492;2023-07-13T09:33:35;97926.69;;;22.65;45.20
75788;BME280;64406;50.024;14.492;2023-07-13T09:36:01;97929.25;;;22.54;44.19
75788;BME280;64406;50.024;14.492;2023-07-13T09:38:29;97919.06;;;22.77;42.40
75788;BME280;64406;50.024;14.492;2023-07-13T09:46:35;97930.22;;;23.91;38.26
75788;BME280;64406;50.024;14.492;2023-07-13T09:49:00;97929.88;;;23.96;37.54
75788;BME280;64406;50.024;14.492;2023-07-13T09:51:26;97947.03;;;24.15;37.94
75788;BME280;64406;50.024;14.492;2023-07-13T09:53:52;97944.47;;;24.67;36.61
75788;BME280;64406;50.024;14.492;2023-07-13T09:56:22;97950.25;;;24.95;34.96
75788;BME280;64406;50.024;14.492;2023-07-13T09:58:48;97952.16;;;25.32;33.56
75788;BME280;64406;50.024;14.492;2023-07-13T10:01:14;97956.28;;;25.08;33.85
75788;BME280;64406;50.024;14.492;2023-07-13T10:03:54;97965.44;;;25.74;32.80
75788;BME280;64406;50.024;14.492;2023-07-13T10:06:22;97960.03;;;25.30;33.38
75788;BME280;64406;50.024;14.492;2023-07-13T10:08:48;97952.34;;;25.06;34.72
75788;BME280;64406;50.024;14.492;2023-07-13T10:11:18;97955.47;;;25.04;35.22
75788;BME280;64406;50.024;14.492;2023-07-13T10:13:55;97944.81;;;24.62;35.91
75788;BME280;64406;50.024;14.492;2023-07-13T10:16:24;97935.69;;;24.21;36.20
75788;BME280;64406;50.024;14.492;2023-07-13T10:18:56;97943.00;;;24.77;36.39
75788;BME280;64406;50.024;14.492;2023-07-13T10:21:27;97946.69;;;24.95;35.81
75788;BME280;64406;50.024;14.492;2023-07-13T10:23:56;97940.28;;;25.28;35.49
75788;BME280;64406;50.024;14.492;2023-07-13T10:26:29;97947.56;;;25.51;35.18
75788;BME280;64406;50.024;14.492;2023-07-13T10:28:57;97949.84;;;24.93;35.41
75788;BME280;64406;50.024;14.492;2023-07-13T10:31:26;97937.63;;;24.94;35.21
75788;BME280;64406;50.024;14.492;2023-07-13T10:33:52;97938.09;;;26.28;33.79
75788;BME280;64406;50.024;14.492;2023-07-13T10:36:33;97924.00;;;26.94;32.18
75788;BME280;64406;50.024;14.492;2023-07-13T10:39:02;97922.41;;;27.46;32.35
75788;BME280;64406;50.024;14.492;2023-07-13T10:41:31;97918.06;;;27.70;30.53
75788;BME280;64406;50.024;14.492;2023-07-13T10:43:58;97925.16;;;26.50;32.29
75788;BME280;64406;50.024;14.492;2023-07-13T10:46:26;97923.09;;;26.22;33.66
75788;BME280;64406;50.024;14.492;2023-07-13T10:48:57;97928.63;;;26.25;33.99
75788;BME280;64406;50.024;14.492;2023-07-13T10:51:24;97920.09;;;25.10;34.97
75788;BME280;64406;50.024;14.492;2023-07-13T10:54:20;97929.94;;;24.33;36.72
75788;BME280;64406;50.024;14.492;2023-07-13T10:56:52;97934.81;;;24.47;35.99
75788;BME280;64406;50.024;14.492;2023-07-13T10:59:26;97930.19;;;24.54;35.78
75788;BME280;64406;50.024;14.492;2023-07-13T11:04:22;97911.34;;;25.59;35.59
75788;BME280;64406;50.024;14.492;2023-07-13T11:06:57;97911.66;;;26.30;34.65
75788;BME280;64406;50.024;14.492;2023-07-13T11:12:27;97896.75;;;27.49;32.24
75788;BME280;64406;50.024;14.492;2023-07-13T11:23:09;97888.06;;;27.36;31.89
75788;BME280;64406;50.024;14.492;2023-07-13T11:25:36;97894.41;;;27.30;31.82
75788;BME280;64406;50.024;14.492;2023-07-13T11:28:16;97897.06;;;27.65;30.86
75788;BME280;64406;50.024;14.492;2023-07-13T11:33:30;97899.84;;;27.73;31.28
75788;BME280;64406;50.024;14.492;2023-07-13T11:36:17;97899.41;;;26.24;33.37
75788;BME280;64406;50.024;14.492;2023-07-13T11:38:57;97895.13;;;26.38;31.98
75788;BME280;64406;50.024;14.492;2023-07-13T11:41:28;97885.69;;;26.60;31.06
75788;BME280;64406;50.024;14.492;2023-07-13T11:44:06;97897.56;;;27.00;29.54
75788;BME280;64406;50.024;14.492;2023-07-13T11:46:32;97894.81;;;26.68;28.60
75788;BME280;64406;50.024;14.492;2023-07-13T11:48:58;97887.19;;;27.82;27.43
75788;BME280;64406;50.024;14.492;2023-07-13T11:51:32;97890.13;;;28.31;27.23
75788;BME280;64406;50.024;14.492;2023-07-13T11:54:04;97888.19;;;28.83;26.63
75788;BME280;64406;50.024;14.492;2023-07-13T11:56:30;97899.13;;;28.45;27.34
75788;BME280;64406;50.024;14.492;2023-07-13T11:59:04;97888.00;;;27.58;27.89
75788;BME280;64406;50.024;14.492;2023-07-13T12:01:32;97888.34;;;27.88;27.75
75788;BME280;64406;50.024;14.492;2023-07-13T12:04:01;97894.41;;;26.98;28.60
75788;BME280;64406;50.024;14.492;2023-07-13T12:06:33;97892.38;;;27.70;28.15
75788;BME280;64406;50.024;14.492;2023-07-13T12:09:03;97900.75;;;28.47;28.69
75788;BME280;64406;50.024;14.492;2023-07-13T12:11:40;97885.31;;;28.97;27.26
75788;BME280;64406;50.024;14.492;2023-07-13T12:14:13;97883.22;;;28.60;28.20
75788;BME280;64406;50.024;14.492;2023-07-13T12:16:40;97883.31;;;28.46;27.29
75788;BME280;64406;50.024;14.492;2023-07-13T12:19:27;97882.56;;;27.12;29.04
75788;BME280;64406;50.024;14.492;2023-07-13T12:21:56;97884.59;;;28.24;27.88
75788;BME280;64406;50.024;14.492;2023-07-13T12:24:23;97887.13;;;27.97;27.69
75788;BME280;64406;50.024;14.492;2023-07-13T12:26:55;97891.66;;;27.19;28.95
75788;BME280;64406;50.024;14.492;2023-07-13T12:29:23;97891.66;;;27.05;29.62
75788;BME280;64406;50.024;14.492;2023-07-13T12:31:49;97893.16;;;27.70;28.81
75788;BME280;64406;50.024;14.492;2023-07-13T12:34:20;97884.00;;;27.84;29.33
75788;BME280;64406;50.024;14.492;2023-07-13T12:36:49;97887.38;;;28.86;28.25
75788;BME280;64406;50.024;14.492;2023-07-13T12:41:46;97874.03;;;31.69;24.25
75788;BME280;64406;50.024;14.492;2023-07-13T12:44:15;97864.84;;;34.68;20.85
75788;BME280;64406;50.024;14.492;2023-07-13T12:47:06;97877.59;;;36.69;19.32
75788;BME280;64406;50.024;14.492;2023-07-13T12:49:41;97894.78;;;31.25;23.52
75788;BME280;64406;50.024;14.492;2023-07-13T12:52:21;97877.94;;;30.31;24.43
75788;BME280;64406;50.024;14.492;2023-07-13T12:54:58;97889.63;;;29.06;25.49
75788;BME280;64406;50.024;14.492;2023-07-13T12:57:25;97880.53;;;27.51;27.80
75788;BME280;64406;50.024;14.492;2023-07-13T12:59:53;97865.19;;;27.18;28.56
75788;BME280;64406;50.024;14.492;2023-07-13T13:02:32;97862.19;;;28.00;28.86
75788;BME280;64406;50.024;14.492;2023-07-13T13:05:01;97859.63;;;27.25;29.59
75788;BME280;64406;50.024;14.492;2023-07-13T13:07:28;97857.88;;;27.85;28.58
75788;BME280;64406;50.024;14.492;2023-07-13T13:09:55;97865.22;;;28.83;26.28
75788;BME280;64406;50.024;14.492;2023-07-13T13:12:22;97856.34;;;31.99;23.01
75788;BME280;64406;50.024;14.492;2023-07-13T13:14:47;97846.88;;;37.52;17.34
75788;BME280;64406;50.024;14.492;2023-07-13T13:17:23;97850.59;;;38.46;16.23
75788;BME280;64406;50.024;14.492;2023-07-13T13:19:52;97839.69;;;40.97;14.23
75788;BME280;64406;50.024;14.492;2023-07-13T13:22:21;97840.63;;;42.02;13.75
75788;BME280;64406;50.024;14.492;2023-07-13T13:24:47;97837.88;;;42.13;13.44
75788;BME280;64406;50.024;14.492;2023-07-13T13:27:20;97829.88;;;42.80;13.00